sensor_id;sensor_type;location;lat;lon;timestamp;P1;durP1;ratioP1;P2;durP2;ratioP2
61471;SDS011;47337;54.068;12.114;2022-11-20T00:01:12;3.45;;;2.22;;
61471;SDS011;47337;54.068;12.114;2022-11-20T00:03:40;3.33;;;1.98;;
61471;SDS011;47337;54.068;12.114;2022-11-20T00:06:07;2.17;;;1.70;;
61471;SDS011;47337;54.068;12.114;2022-11-20T00:08:34;2.05;;;1.30;;
61471;SDS011;47337;54.068;12.114;2022-11-20T00:11:13;1.52;;;1.30;;
61471;SDS011;47337;54.068;12.114;2022-11-20T00:13:41;3.92;;;1.00;;
61471;SDS011;47337;54.068;12.114;2022-11-20T00:16:07;1.45;;;0.98;;
61471;SDS011;47337;54.068;12.114;2022-11-20T00:18:37;1.52;;;1.10;;
61471;SDS011;47337;54.068;12.114;2022-11-20T00:21:09;1.55;;;0.90;;
61471;SDS011;47337;54.068;12.114;2022-11-20T00:23:38;1.90;;;1.08;;
61471;SDS011;47337;54.068;12.114;2022-11-20T00:26:05;1.63;;;1.20;;
61471;SDS011;47337;54.068;12.114;2022-11-20T00:28:32;1.73;;;1.00;;
61471;SDS011;47337;54.068;12.114;2022-11-20T00:33:34;4.18;;;0.98;;
61471;SDS011;47337;54.068;12.114;2022-11-20T00:36:03;1.35;;;0.95;;
61471;SDS011;47337;54.068;12.114;2022-11-20T00:38:32;2.63;;;1.00;;
61471;SDS011;47337;54.068;12.114;2022-11-20T00:40:59;1.20;;;0.82;;
61471;SDS011;47337;54.068;12.114;2022-11-20T00:43:28;3.22;;;1.00;;
61471;SDS011;47337;54.068;12.114;2022-11-20T00:45:57;1.73;;;0.88;;
61471;SDS011;47337;54.068;12.114;2022-11-20T00:48:24;1.10;;;0.98;;
61471;SDS011;47337;54.068;12.114;2022-11-20T00:50:49;1.05;;;0.90;;
61471;SDS011;47337;54.068;12.114;2022-11-20T00:53:15;2.53;;;0.90;;
61471;SDS011;47337;54.068;12.114;2022-11-20T00:55:43;1.00;;;0.70;;
61471;SDS011;47337;54.068;12.114;2022-11-20T00:58:19;1.65;;;1.10;;
61471;SDS011;47337;54.068;12.114;2022-11-20T01:00:45;1.88;;;1.17;;
61471;SDS011;47337;54.068;12.114;2022-11-20T01:03:14;1.88;;;0.90;;
61471;SDS011;47337;54.068;12.114;2022-11-20T01:05:39;2.13;;;1.25;;
61471;SDS011;47337;54.068;12.114;2022-11-20T01:08:07;1.92;;;1.15;;
61471;SDS011;47337;54.068;12.114;2022-11-20T01:10:35;1.55;;;1.00;;
61471;SDS011;47337;54.068;12.114;2022-11-20T01:13:01;1.38;;;1.00;;
61471;SDS011;47337;54.068;12.114;2022-11-20T01:15:45;1.38;;;1.00;;
61471;SDS011;47337;54.068;12.114;2022-11-20T01:18:10;1.48;;;1.08;;
61471;SDS011;47337;54.068;12.114;2022-11-20T01:20:36;4.57;;;1.90;;
61471;SDS011;47337;54.068;12.114;2022-11-20T01:23:04;1.77;;;1.08;;
61471;SDS011;47337;54.068;12.114;2022-11-20T01:25:32;3.05;;;1.48;;
61471;SDS011;47337;54.068;12.114;2022-11-20T01:27:59;3.40;;;1.20;;
61471;SDS011;47337;54.068;12.114;2022-11-20T01:30:27;1.85;;;1.58;;
61471;SDS011;47337;54.068;12.114;2022-11-20T01:32:54;2.20;;;1.52;;
61471;SDS011;47337;54.068;12.114;2022-11-20T01:35:20;4.00;;;1.50;;
61471;SDS011;47337;54.068;12.114;2022-11-20T01:37:47;2.22;;;1.70;;
61471;SDS011;47337;54.068;12.114;2022-11-20T01:40:15;2.97;;;1.42;;
61471;SDS011;47337;54.068;12.114;2022-11-20T01:42:44;3.13;;;1.50;;
61471;SDS011;47337;54.068;12.114;2022-11-20T01:48:26;2.40;;;1.75;;
61471;SDS011;47337;54.068;12.114;2022-11-20T01:51:33;2.60;;;1.45;;
61471;SDS011;47337;54.068;12.114;2022-11-20T01:54:01;2.45;;;1.55;;
61471;SDS011;47337;54.068;12.114;2022-11-20T01:56:31;2.50;;;1.90;;
61471;SDS011;47337;54.068;12.114;2022-11-20T01:59:02;2.42;;;1.58;;
61471;SDS011;47337;54.068;12.114;2022-11-20T02:01:30;2.22;;;1.90;;
61471;SDS011;47337;54.068;12.114;2022-11-20T02:03:58;4.45;;;2.10;;
61471;SDS011;47337;54.068;12.114;2022-11-20T02:06:26;4.43;;;2.00;;
61471;SDS011;47337;54.068;12.114;2022-11-20T02:09:05;2.60;;;2.08;;
61471;SDS011;47337;54.068;12.114;2022-11-20T02:11:31;3.08;;;2.28;;
61471;SDS011;47337;54.068;12.114;2022-11-20T02:13:56;3.72;;;2.40;;
61471;SDS011;47337;54.068;12.114;2022-11-20T02:16:24;3.30;;;2.17;;
61471;SDS011;47337;54.068;12.114;2022-11-20T02:18:51;3.15;;;2.40;;
61471;SDS011;47337;54.068;12.114;2022-11-20T02:26:41;3.28;;;2.60;;
61471;SDS011;47337;54.068;12.114;2022-11-20T02:29:11;6.80;;;3.17;;
61471;SDS011;47337;54.068;12.114;2022-11-20T02:31:40;3.53;;;2.67;;
61471;SDS011;47337;54.068;12.114;2022-11-20T02:34:07;4.97;;;2.78;;
61471;SDS011;47337;54.068;12.114;2022-11-20T02:36:33;4.25;;;2.97;;
61471;SDS011;47337;54.068;12.114;2022-11-20T02:39:03;5.28;;;2.78;;
61471;SDS011;47337;54.068;12.114;2022-11-20T02:41:32;3.88;;;2.90;;
61471;SDS011;47337;54.068;12.114;2022-11-20T02:43:59;4.85;;;3.45;;
61471;SDS011;47337;54.068;12.114;2022-11-20T02:46:25;4.78;;;3.25;;
61471;SDS011;47337;54.068;12.114;2022-11-20T02:48:53;5.50;;;3.03;;
61471;SDS011;47337;54.068;12.114;2022-11-20T02:51:18;4.18;;;2.90;;
61471;SDS011;47337;54.068;12.114;2022-11-20T02:53:46;4.07;;;2.78;;
61471;SDS011;47337;54.068;12.114;2022-11-20T02:56:11;4.97;;;3.03;;
61471;SDS011;47337;54.068;12.114;2022-11-20T02:58:37;16.80;;;4.82;;
61471;SDS011;47337;54.068;12.114;2022-11-20T03:01:02;3.30;;;2.30;;
61471;SDS011;47337;54.068;12.114;2022-11-20T03:03:28;3.33;;;2.50;;
61471;SDS011;47337;54.068;12.114;2022-11-20T03:05:55;3.42;;;2.25;;
61471;SDS011;47337;54.068;12.114;2022-11-20T03:08:26;3.47;;;2.47;;
61471;SDS011;47337;54.068;12.114;2022-11-20T03:10:54;4.15;;;2.80;;
61471;SDS011;47337;54.068;12.114;2022-11-20T03:13:19;3.20;;;2.30;;
61471;SDS011;47337;54.068;12.114;2022-11-20T03:15:44;4.40;;;2.92;;
61471;SDS011;47337;54.068;12.114;2022-11-20T03:18:10;3.72;;;2.83;;
61471;SDS011;47337;54.068;12.114;2022-11-20T03:20:35;5.10;;;2.55;;
61471;SDS011;47337;54.068;12.114;2022-11-20T03:23:03;3.25;;;2.33;;
61471;SDS011;47337;54.068;12.114;2022-11-20T03:25:31;2.95;;;2.33;;
61471;SDS011;47337;54.068;12.114;2022-11-20T03:27:56;3.45;;;2.30;;
61471;SDS011;47337;54.068;12.114;2022-11-20T03:30:22;2.70;;;2.38;;
61471;SDS011;47337;54.068;12.114;2022-11-20T03:32:47;4.15;;;2.80;;
61471;SDS011;47337;54.068;12.114;2022-11-20T03:35:15;3.90;;;2.60;;
61471;SDS011;47337;54.068;12.114;2022-11-20T03:37:40;5.03;;;2.40;;
61471;SDS011;47337;54.068;12.114;2022-11-20T03:40:06;3.42;;;2.22;;
61471;SDS011;47337;54.068;12.114;2022-11-20T03:42:34;3.45;;;2.17;;
61471;SDS011;47337;54.068;12.114;2022-11-20T03:45:18;3.33;;;2.30;;
61471;SDS011;47337;54.068;12.114;2022-11-20T03:47:45;4.50;;;2.63;;
61471;SDS011;47337;54.068;12.114;2022-11-20T03:50:11;4.20;;;2.20;;
61471;SDS011;47337;54.068;12.114;2022-11-20T03:52:40;4.47;;;2.53;;
61471;SDS011;47337;54.068;12.114;2022-11-20T03:55:06;4.00;;;2.65;;
61471;SDS011;47337;54.068;12.114;2022-11-20T03:57:36;3.33;;;2.38;;
61471;SDS011;47337;54.068;12.114;2022-11-20T04:00:02;3.15;;;2.30;;
61471;SDS011;47337;54.068;12.114;2022-11-20T04:02:30;3.20;;;2.25;;
61471;SDS011;47337;54.068;12.114;2022-11-20T04:04:58;4.70;;;2.58;;
61471;SDS011;47337;54.068;12.114;2022-11-20T04:07:23;3.28;;;2.50;;
61471;SDS011;47337;54.068;12.114;2022-11-20T04:09:49;3.70;;;2.30;;
61471;SDS011;47337;54.068;12.114;2022-11-20T04:12:14;3.10;;;2.17;;
61471;SDS011;47337;54.068;12.114;2022-11-20T04:14:40;3.42;;;2.13;;
61471;SDS011;47337;54.068;12.114;2022-11-20T04:17:12;3.28;;;2.22;;
61471;SDS011;47337;54.068;12.114;2022-11-20T04:19:42;3.80;;;2.50;;
61471;SDS011;47337;54.068;12.114;2022-11-20T04:22:07;4.30;;;2.70;;
61471;SDS011;47337;54.068;12.114;2022-11-20T04:24:33;6.20;;;2.60;;
61471;SDS011;47337;54.068;12.114;2022-11-20T04:27:01;3.00;;;2.10;;
61471;SDS011;47337;54.068;12.114;2022-11-20T04:29:26;4.13;;;2.63;;
61471;SDS011;47337;54.068;12.114;2022-11-20T04:31:54;4.32;;;2.38;;
61471;SDS011;47337;54.068;12.114;2022-11-20T04:34:19;3.97;;;2.20;;
61471;SDS011;47337;54.068;12.114;2022-11-20T04:36:45;4.55;;;2.88;;
61471;SDS011;47337;54.068;12.114;2022-11-20T04:39:11;3.83;;;2.28;;
61471;SDS011;47337;54.068;12.114;2022-11-20T04:41:39;4.13;;;2.50;;
61471;SDS011;47337;54.068;12.114;2022-11-20T04:44:05;5.32;;;2.20;;
61471;SDS011;47337;54.068;12.114;2022-11-20T04:46:33;3.97;;;2.42;;
61471;SDS011;47337;54.068;12.114;2022-11-20T04:49:01;4.28;;;2.65;;
61471;SDS011;47337;54.068;12.114;2022-11-20T04:51:27;3.72;;;2.33;;
61471;SDS011;47337;54.068;12.114;2022-11-20T04:53:53;4.57;;;3.13;;
61471;SDS011;47337;54.068;12.114;2022-11-20T04:56:18;6.85;;;3.47;;
61471;SDS011;47337;54.068;12.114;2022-11-20T04:58:44;5.30;;;3.30;;
61471;SDS011;47337;54.068;12.114;2022-11-20T05:01:13;6.78;;;3.85;;
61471;SDS011;47337;54.068;12.114;2022-11-20T05:03:43;7.68;;;4.20;;
61471;SDS011;47337;54.068;12.114;2022-11-20T05:06:10;7.32;;;4.25;;
61471;SDS011;47337;54.068;12.114;2022-11-20T05:08:37;6.57;;;3.90;;
61471;SDS011;47337;54.068;12.114;2022-11-20T05:11:03;9.00;;;4.38;;
61471;SDS011;47337;54.068;12.114;2022-11-20T05:13:33;6.57;;;3.92;;
61471;SDS011;47337;54.068;12.114;2022-11-20T05:16:03;9.65;;;4.45;;
61471;SDS011;47337;54.068;12.114;2022-11-20T05:18:30;8.35;;;4.28;;
61471;SDS011;47337;54.068;12.114;2022-11-20T05:20:56;9.98;;;4.70;;
61471;SDS011;47337;54.068;12.114;2022-11-20T05:23:22;8.63;;;4.47;;
61471;SDS011;47337;54.068;12.114;2022-11-20T05:25:52;6.72;;;3.80;;
61471;SDS011;47337;54.068;12.114;2022-11-20T05:28:21;8.23;;;4.88;;
61471;SDS011;47337;54.068;12.114;2022-11-20T05:30:47;6.53;;;3.28;;
61471;SDS011;47337;54.068;12.114;2022-11-20T05:33:13;6.97;;;4.07;;
61471;SDS011;47337;54.068;12.114;2022-11-20T05:35:38;7.22;;;3.75;;
61471;SDS011;47337;54.068;12.114;2022-11-20T05:38:04;6.85;;;3.85;;
61471;SDS011;47337;54.068;12.114;2022-11-20T05:40:29;6.68;;;3.60;;
61471;SDS011;47337;54.068;12.114;2022-11-20T05:42:55;7.32;;;3.90;;
61471;SDS011;47337;54.068;12.114;2022-11-20T05:45:20;6.72;;;3.72;;
61471;SDS011;47337;54.068;12.114;2022-11-20T05:47:45;8.10;;;4.10;;
61471;SDS011;47337;54.068;12.114;2022-11-20T05:50:11;7.28;;;3.25;;
61471;SDS011;47337;54.068;12.114;2022-11-20T05:52:39;6.82;;;3.40;;
61471;SDS011;47337;54.068;12.114;2022-11-20T05:55:05;7.93;;;3.67;;
61471;SDS011;47337;54.068;12.114;2022-11-20T05:57:31;5.68;;;3.00;;
61471;SDS011;47337;54.068;12.114;2022-11-20T05:59:59;5.38;;;3.30;;
61471;SDS011;47337;54.068;12.114;2022-11-20T06:02:25;4.97;;;2.70;;
61471;SDS011;47337;54.068;12.114;2022-11-20T06:04:53;5.55;;;2.50;;
61471;SDS011;47337;54.068;12.114;2022-11-20T06:07:18;5.78;;;3.28;;
61471;SDS011;47337;54.068;12.114;2022-11-20T06:09:43;4.63;;;2.97;;
61471;SDS011;47337;54.068;12.114;2022-11-20T06:12:09;4.75;;;2.63;;
61471;SDS011;47337;54.068;12.114;2022-11-20T06:14:34;4.97;;;2.80;;
61471;SDS011;47337;54.068;12.114;2022-11-20T06:16:59;5.93;;;3.13;;
61471;SDS011;47337;54.068;12.114;2022-11-20T06:19:25;5.45;;;3.10;;
61471;SDS011;47337;54.068;12.114;2022-11-20T06:21:50;6.20;;;2.58;;
61471;SDS011;47337;54.068;12.114;2022-11-20T06:24:18;5.20;;;2.90;;
61471;SDS011;47337;54.068;12.114;2022-11-20T06:26:43;5.57;;;2.47;;
61471;SDS011;47337;54.068;12.114;2022-11-20T06:29:09;4.22;;;2.22;;
61471;SDS011;47337;54.068;12.114;2022-11-20T06:31:37;4.75;;;2.78;;
61471;SDS011;47337;54.068;12.114;2022-11-20T06:34:03;4.95;;;2.63;;
61471;SDS011;47337;54.068;12.114;2022-11-20T06:36:31;6.47;;;2.63;;
61471;SDS011;47337;54.068;12.114;2022-11-20T06:38:56;5.47;;;2.67;;
61471;SDS011;47337;54.068;12.114;2022-11-20T06:41:22;6.00;;;3.08;;
61471;SDS011;47337;54.068;12.114;2022-11-20T06:43:48;7.53;;;3.20;;
61471;SDS011;47337;54.068;12.114;2022-11-20T06:46:14;5.35;;;2.88;;
61471;SDS011;47337;54.068;12.114;2022-11-20T06:48:42;7.05;;;2.60;;
61471;SDS011;47337;54.068;12.114;2022-11-20T06:51:10;5.38;;;2.63;;
61471;SDS011;47337;54.068;12.114;2022-11-20T06:53:38;5.85;;;2.72;;
61471;SDS011;47337;54.068;12.114;2022-11-20T06:56:04;5.57;;;2.80;;
61471;SDS011;47337;54.068;12.114;2022-11-20T06:58:33;5.70;;;3.10;;
61471;SDS011;47337;54.068;12.114;2022-11-20T07:01:04;6.80;;;3.00;;
61471;SDS011;47337;54.068;12.114;2022-11-20T07:03:32;5.85;;;2.83;;
61471;SDS011;47337;54.068;12.114;2022-11-20T07:05:57;4.95;;;2.90;;
61471;SDS011;47337;54.068;12.114;2022-11-20T07:08:27;6.00;;;2.50;;
61471;SDS011;47337;54.068;12.114;2022-11-20T07:11:02;7.28;;;3.67;;
61471;SDS011;47337;54.068;12.114;2022-11-20T07:13:30;7.65;;;3.90;;
61471;SDS011;47337;54.068;12.114;2022-11-20T07:15:59;7.57;;;3.45;;
61471;SDS011;47337;54.068;12.114;2022-11-20T07:18:26;7.00;;;3.58;;
61471;SDS011;47337;54.068;12.114;2022-11-20T07:20:51;6.55;;;3.67;;
61471;SDS011;47337;54.068;12.114;2022-11-20T07:23:17;8.10;;;4.22;;
61471;SDS011;47337;54.068;12.114;2022-11-20T07:25:42;6.97;;;3.67;;
61471;SDS011;47337;54.068;12.114;2022-11-20T07:28:10;7.25;;;4.05;;
61471;SDS011;47337;54.068;12.114;2022-11-20T07:30:35;7.43;;;3.92;;
61471;SDS011;47337;54.068;12.114;2022-11-20T07:33:01;6.72;;;3.60;;
61471;SDS011;47337;54.068;12.114;2022-11-20T07:35:29;8.20;;;3.72;;
61471;SDS011;47337;54.068;12.114;2022-11-20T07:37:55;7.78;;;3.75;;
61471;SDS011;47337;54.068;12.114;2022-11-20T07:40:20;9.95;;;4.07;;
61471;SDS011;47337;54.068;12.114;2022-11-20T07:42:50;7.30;;;3.65;;
61471;SDS011;47337;54.068;12.114;2022-11-20T07:45:17;7.18;;;3.67;;
61471;SDS011;47337;54.068;12.114;2022-11-20T07:47:46;7.88;;;4.00;;
61471;SDS011;47337;54.068;12.114;2022-11-20T07:50:12;9.60;;;3.95;;
61471;SDS011;47337;54.068;12.114;2022-11-20T07:52:41;7.55;;;3.55;;
61471;SDS011;47337;54.068;12.114;2022-11-20T07:55:09;9.48;;;4.28;;
61471;SDS011;47337;54.068;12.114;2022-11-20T07:57:35;9.20;;;4.15;;
61471;SDS011;47337;54.068;12.114;2022-11-20T08:00:00;7.25;;;3.90;;
61471;SDS011;47337;54.068;12.114;2022-11-20T08:02:29;7.20;;;3.30;;
61471;SDS011;47337;54.068;12.114;2022-11-20T08:04:54;5.75;;;3.10;;
61471;SDS011;47337;54.068;12.114;2022-11-20T08:07:19;10.10;;;4.05;;
61471;SDS011;47337;54.068;12.114;2022-11-20T08:09:47;5.35;;;2.90;;
61471;SDS011;47337;54.068;12.114;2022-11-20T08:12:19;6.97;;;3.70;;
61471;SDS011;47337;54.068;12.114;2022-11-20T08:15:06;7.53;;;3.75;;
61471;SDS011;47337;54.068;12.114;2022-11-20T08:17:32;6.53;;;3.53;;
61471;SDS011;47337;54.068;12.114;2022-11-20T08:19:58;7.10;;;3.75;;
61471;SDS011;47337;54.068;12.114;2022-11-20T08:22:23;7.00;;;3.40;;
61471;SDS011;47337;54.068;12.114;2022-11-20T08:24:49;6.07;;;3.95;;
61471;SDS011;47337;54.068;12.114;2022-11-20T08:27:17;7.25;;;3.80;;
61471;SDS011;47337;54.068;12.114;2022-11-20T08:29:42;6.70;;;3.75;;
61471;SDS011;47337;54.068;12.114;2022-11-20T08:32:10;6.47;;;3.60;;
61471;SDS011;47337;54.068;12.114;2022-11-20T08:34:35;6.57;;;3.80;;
61471;SDS011;47337;54.068;12.114;2022-11-20T08:37:03;6.20;;;3.35;;
61471;SDS011;47337;54.068;12.114;2022-11-20T08:39:28;7.03;;;3.97;;
61471;SDS011;47337;54.068;12.114;2022-11-20T08:41:54;4.22;;;2.55;;
61471;SDS011;47337;54.068;12.114;2022-11-20T08:44:19;3.85;;;2.42;;
61471;SDS011;47337;54.068;12.114;2022-11-20T08:46:47;4.57;;;1.92;;
61471;SDS011;47337;54.068;12.114;2022-11-20T08:49:15;4.03;;;2.63;;
61471;SDS011;47337;54.068;12.114;2022-11-20T08:51:40;5.10;;;2.88;;
61471;SDS011;47337;54.068;12.114;2022-11-20T08:54:08;4.18;;;2.30;;
61471;SDS011;47337;54.068;12.114;2022-11-20T08:56:34;3.88;;;2.35;;
61471;SDS011;47337;54.068;12.114;2022-11-20T08:59:02;3.28;;;2.38;;
61471;SDS011;47337;54.068;12.114;2022-11-20T09:01:28;3.03;;;2.22;;
61471;SDS011;47337;54.068;12.114;2022-11-20T09:03:58;3.78;;;2.40;;
61471;SDS011;47337;54.068;12.114;2022-11-20T09:06:24;4.75;;;2.97;;
61471;SDS011;47337;54.068;12.114;2022-11-20T09:08:54;4.00;;;2.90;;
61471;SDS011;47337;54.068;12.114;2022-11-20T09:11:22;5.13;;;2.63;;
61471;SDS011;47337;54.068;12.114;2022-11-20T09:13:47;3.90;;;2.70;;
61471;SDS011;47337;54.068;12.114;2022-11-20T09:16:13;2.88;;;1.88;;
61471;SDS011;47337;54.068;12.114;2022-11-20T09:18:38;2.85;;;1.90;;
61471;SDS011;47337;54.068;12.114;2022-11-20T09:21:05;2.30;;;2.00;;
61471;SDS011;47337;54.068;12.114;2022-11-20T09:23:38;3.20;;;2.10;;
61471;SDS011;47337;54.068;12.114;2022-11-20T09:26:13;3.08;;;2.05;;
61471;SDS011;47337;54.068;12.114;2022-11-20T09:28:41;3.42;;;2.30;;
61471;SDS011;47337;54.068;12.114;2022-11-20T09:31:07;2.60;;;1.83;;
61471;SDS011;47337;54.068;12.114;2022-11-20T09:33:33;3.25;;;2.20;;
61471;SDS011;47337;54.068;12.114;2022-11-20T09:35:59;3.28;;;2.17;;
61471;SDS011;47337;54.068;12.114;2022-11-20T09:38:27;2.55;;;1.83;;
61471;SDS011;47337;54.068;12.114;2022-11-20T09:40:57;2.17;;;1.98;;
61471;SDS011;47337;54.068;12.114;2022-11-20T09:46:53;2.78;;;1.55;;
61471;SDS011;47337;54.068;12.114;2022-11-20T09:49:46;2.00;;;1.80;;
61471;SDS011;47337;54.068;12.114;2022-11-20T09:52:35;2.40;;;1.40;;
61471;SDS011;47337;54.068;12.114;2022-11-20T09:55:03;2.28;;;1.65;;
61471;SDS011;47337;54.068;12.114;2022-11-20T09:57:32;2.97;;;1.88;;
61471;SDS011;47337;54.068;12.114;2022-11-20T10:00:04;3.50;;;1.80;;
61471;SDS011;47337;54.068;12.114;2022-11-20T10:10:16;2.63;;;1.58;;
61471;SDS011;47337;54.068;12.114;2022-11-20T10:13:53;1.88;;;1.25;;
61471;SDS011;47337;54.068;12.114;2022-11-20T10:18:28;2.50;;;1.20;;
61471;SDS011;47337;54.068;12.114;2022-11-20T10:28:56;1.50;;;1.25;;
61471;SDS011;47337;54.068;12.114;2022-11-20T10:31:53;1.50;;;1.35;;
61471;SDS011;47337;54.068;12.114;2022-11-20T10:34:27;1.30;;;1.20;;
61471;SDS011;47337;54.068;12.114;2022-11-20T10:37:06;2.00;;;1.60;;
61471;SDS011;47337;54.068;12.114;2022-11-20T10:45:04;1.42;;;1.33;;
61471;SDS011;47337;54.068;12.114;2022-11-20T10:47:40;2.58;;;1.85;;
61471;SDS011;47337;54.068;12.114;2022-11-20T10:50:09;1.70;;;1.40;;
61471;SDS011;47337;54.068;12.114;2022-11-20T11:01:02;2.95;;;2.08;;
61471;SDS011;47337;54.068;12.114;2022-11-20T11:03:29;2.17;;;1.60;;
61471;SDS011;47337;54.068;12.114;2022-11-20T11:06:03;2.22;;;1.70;;
61471;SDS011;47337;54.068;12.114;2022-11-20T11:08:37;2.38;;;1.55;;
61471;SDS011;47337;54.068;12.114;2022-11-20T11:11:25;5.80;;;2.67;;
61471;SDS011;47337;54.068;12.114;2022-11-20T11:13:52;3.30;;;2.50;;
61471;SDS011;47337;54.068;12.114;2022-11-20T11:16:27;2.65;;;1.92;;
61471;SDS011;47337;54.068;12.114;2022-11-20T11:19:03;2.67;;;1.83;;
61471;SDS011;47337;54.068;12.114;2022-11-20T11:21:32;3.42;;;2.10;;
61471;SDS011;47337;54.068;12.114;2022-11-20T11:23:59;4.60;;;2.58;;
61471;SDS011;47337;54.068;12.114;2022-11-20T11:26:28;3.53;;;2.30;;
61471;SDS011;47337;54.068;12.114;2022-11-20T11:28:56;3.38;;;2.17;;
61471;SDS011;47337;54.068;12.114;2022-11-20T11:31:24;3.50;;;2.35;;
61471;SDS011;47337;54.068;12.114;2022-11-20T11:33:51;3.50;;;2.40;;
61471;SDS011;47337;54.068;12.114;2022-11-20T11:36:21;2.85;;;2.33;;
61471;SDS011;47337;54.068;12.114;2022-11-20T11:38:50;3.42;;;2.13;;
61471;SDS011;47337;54.068;12.114;2022-11-20T11:41:20;4.05;;;2.60;;
61471;SDS011;47337;54.068;12.114;2022-11-20T11:43:52;3.63;;;2.35;;
61471;SDS011;47337;54.068;12.114;2022-11-20T11:46:39;3.47;;;2.55;;
61471;SDS011;47337;54.068;12.114;2022-11-20T11:51:37;4.07;;;1.98;;
61471;SDS011;47337;54.068;12.114;2022-11-20T11:54:05;3.83;;;2.33;;
61471;SDS011;47337;54.068;12.114;2022-11-20T11:56:44;3.47;;;2.85;;
61471;SDS011;47337;54.068;12.114;2022-11-20T11:59:12;4.35;;;2.78;;
61471;SDS011;47337;54.068;12.114;2022-11-20T12:01:50;4.30;;;2.60;;
61471;SDS011;47337;54.068;12.114;2022-11-20T12:04:30;4.03;;;2.95;;
61471;SDS011;47337;54.068;12.114;2022-11-20T12:09:57;4.55;;;3.50;;
61471;SDS011;47337;54.068;12.114;2022-11-20T12:12:27;5.32;;;2.95;;
61471;SDS011;47337;54.068;12.114;2022-11-20T12:14:57;3.72;;;2.75;;
61471;SDS011;47337;54.068;12.114;2022-11-20T12:17:23;4.18;;;2.75;;
61471;SDS011;47337;54.068;12.114;2022-11-20T12:19:51;3.90;;;2.60;;
61471;SDS011;47337;54.068;12.114;2022-11-20T12:50:35;4.80;;;3.33;;
61471;SDS011;47337;54.068;12.114;2022-11-20T13:06:59;5.22;;;3.90;;
61471;SDS011;47337;54.068;12.114;2022-11-20T13:09:29;5.28;;;3.63;;
61471;SDS011;47337;54.068;12.114;2022-11-20T13:14:33;5.63;;;3.83;;
61471;SDS011;47337;54.068;12.114;2022-11-20T13:17:36;5.50;;;4.13;;
61471;SDS011;47337;54.068;12.114;2022-11-20T13:20:06;4.75;;;3.90;;
61471;SDS011;47337;54.068;12.114;2022-11-20T13:22:47;4.93;;;3.47;;
61471;SDS011;47337;54.068;12.114;2022-11-20T13:25:29;5.38;;;3.90;;
61471;SDS011;47337;54.068;12.114;2022-11-20T13:30:33;8.65;;;4.93;;
61471;SDS011;47337;54.068;12.114;2022-11-20T13:35:59;5.40;;;4.15;;
61471;SDS011;47337;54.068;12.114;2022-11-20T13:38:43;6.05;;;4.43;;
61471;SDS011;47337;54.068;12.114;2022-11-20T13:41:23;6.78;;;4.20;;
61471;SDS011;47337;54.068;12.114;2022-11-20T13:46:35;6.97;;;4.43;;
61471;SDS011;47337;54.068;12.114;2022-11-20T13:49:06;7.32;;;4.68;;
61471;SDS011;47337;54.068;12.114;2022-11-20T13:51:41;7.88;;;4.55;;
61471;SDS011;47337;54.068;12.114;2022-11-20T14:02:33;8.43;;;4.85;;
61471;SDS011;47337;54.068;12.114;2022-11-20T14:04:59;7.93;;;5.18;;
61471;SDS011;47337;54.068;12.114;2022-11-20T14:07:37;8.82;;;5.65;;
61471;SDS011;47337;54.068;12.114;2022-11-20T14:10:06;7.68;;;5.28;;
61471;SDS011;47337;54.068;12.114;2022-11-20T14:12:46;7.63;;;4.95;;
61471;SDS011;47337;54.068;12.114;2022-11-20T14:15:23;9.57;;;5.30;;
61471;SDS011;47337;54.068;12.114;2022-11-20T14:20:25;7.20;;;5.10;;
61471;SDS011;47337;54.068;12.114;2022-11-20T14:22:54;8.93;;;5.38;;
61471;SDS011;47337;54.068;12.114;2022-11-20T14:27:56;8.05;;;5.30;;
61471;SDS011;47337;54.068;12.114;2022-11-20T14:30:27;7.72;;;5.03;;
61471;SDS011;47337;54.068;12.114;2022-11-20T14:33:02;7.10;;;4.57;;
61471;SDS011;47337;54.068;12.114;2022-11-20T14:35:29;10.73;;;6.03;;
61471;SDS011;47337;54.068;12.114;2022-11-20T14:38:02;8.60;;;5.38;;
61471;SDS011;47337;54.068;12.114;2022-11-20T14:40:35;8.07;;;5.20;;
61471;SDS011;47337;54.068;12.114;2022-11-20T14:43:19;9.63;;;5.53;;
61471;SDS011;47337;54.068;12.114;2022-11-20T14:46:00;9.23;;;5.60;;
61471;SDS011;47337;54.068;12.114;2022-11-20T14:48:32;8.52;;;5.80;;
61471;SDS011;47337;54.068;12.114;2022-11-20T14:51:05;11.25;;;6.03;;
61471;SDS011;47337;54.068;12.114;2022-11-20T14:53:30;13.07;;;7.50;;
61471;SDS011;47337;54.068;12.114;2022-11-20T14:55:57;11.23;;;6.90;;
61471;SDS011;47337;54.068;12.114;2022-11-20T14:58:25;13.30;;;7.20;;
61471;SDS011;47337;54.068;12.114;2022-11-20T15:00:55;14.30;;;7.93;;
61471;SDS011;47337;54.068;12.114;2022-11-20T15:03:22;14.70;;;8.48;;
61471;SDS011;47337;54.068;12.114;2022-11-20T15:05:48;19.58;;;9.48;;
61471;SDS011;47337;54.068;12.114;2022-11-20T15:08:15;16.88;;;9.80;;
61471;SDS011;47337;54.068;12.114;2022-11-20T15:10:48;16.23;;;9.23;;
61471;SDS011;47337;54.068;12.114;2022-11-20T15:13:25;16.42;;;9.00;;
61471;SDS011;47337;54.068;12.114;2022-11-20T15:16:02;16.92;;;9.50;;
61471;SDS011;47337;54.068;12.114;2022-11-20T15:18:32;15.73;;;8.65;;
61471;SDS011;47337;54.068;12.114;2022-11-20T15:21:02;15.75;;;8.20;;
61471;SDS011;47337;54.068;12.114;2022-11-20T15:23:34;16.55;;;8.55;;
61471;SDS011;47337;54.068;12.114;2022-11-20T15:26:00;16.15;;;8.32;;
61471;SDS011;47337;54.068;12.114;2022-11-20T15:28:32;16.23;;;8.25;;
61471;SDS011;47337;54.068;12.114;2022-11-20T15:31:04;16.90;;;8.80;;
61471;SDS011;47337;54.068;12.114;2022-11-20T15:33:31;15.60;;;8.35;;
61471;SDS011;47337;54.068;12.114;2022-11-20T15:35:57;16.73;;;9.38;;
61471;SDS011;47337;54.068;12.114;2022-11-20T15:38:25;20.35;;;10.02;;
61471;SDS011;47337;54.068;12.114;2022-11-20T15:40:53;22.85;;;10.27;;
61471;SDS011;47337;54.068;12.114;2022-11-20T15:43:18;18.23;;;10.18;;
61471;SDS011;47337;54.068;12.114;2022-11-20T15:45:45;17.95;;;10.65;;
61471;SDS011;47337;54.068;12.114;2022-11-20T15:48:18;19.42;;;9.77;;
61471;SDS011;47337;54.068;12.114;2022-11-20T15:51:31;20.73;;;11.15;;
61471;SDS011;47337;54.068;12.114;2022-11-20T15:53:34;17.58;;;9.85;;
61471;SDS011;47337;54.068;12.114;2022-11-20T15:56:00;22.55;;;11.25;;
61471;SDS011;47337;54.068;12.114;2022-11-20T15:58:28;21.80;;;10.35;;
61471;SDS011;47337;54.068;12.114;2022-11-20T16:00:53;20.23;;;10.60;;
61471;SDS011;47337;54.068;12.114;2022-11-20T16:03:19;20.60;;;10.70;;
61471;SDS011;47337;54.068;12.114;2022-11-20T16:05:45;18.80;;;9.98;;
61471;SDS011;47337;54.068;12.114;2022-11-20T16:08:13;18.15;;;8.68;;
61471;SDS011;47337;54.068;12.114;2022-11-20T16:10:39;18.63;;;9.63;;
61471;SDS011;47337;54.068;12.114;2022-11-20T16:13:13;18.42;;;9.75;;
61471;SDS011;47337;54.068;12.114;2022-11-20T16:16:00;22.05;;;10.25;;
61471;SDS011;47337;54.068;12.114;2022-11-20T16:18:30;25.55;;;9.82;;
61471;SDS011;47337;54.068;12.114;2022-11-20T16:20:56;23.70;;;9.75;;
61471;SDS011;47337;54.068;12.114;2022-11-20T16:23:22;25.50;;;9.75;;
61471;SDS011;47337;54.068;12.114;2022-11-20T16:25:48;20.63;;;9.95;;
61471;SDS011;47337;54.068;12.114;2022-11-20T16:28:17;22.52;;;10.05;;
61471;SDS011;47337;54.068;12.114;2022-11-20T16:30:43;20.17;;;9.75;;
61471;SDS011;47337;54.068;12.114;2022-11-20T16:33:09;21.17;;;10.00;;
61471;SDS011;47337;54.068;12.114;2022-11-20T16:35:37;20.98;;;10.52;;
61471;SDS011;47337;54.068;12.114;2022-11-20T16:38:02;22.35;;;10.43;;
61471;SDS011;47337;54.068;12.114;2022-11-20T16:40:28;22.52;;;10.27;;
61471;SDS011;47337;54.068;12.114;2022-11-20T16:42:53;21.10;;;9.93;;